createdAt,value
2023-03-21T00:01:00.413Z,3.67
2023-03-21T00:03:29.149Z,3.62
2023-03-21T00:05:57.919Z,3.66
2023-03-21T00:08:27.056Z,3.70
2023-03-21T00:11:02.220Z,3.78
2023-03-21T00:13:33.030Z,3.83
2023-03-21T00:19:18.217Z,3.94
2023-03-21T00:22:06.611Z,3.91
2023-03-21T00:24:37.684Z,3.97
2023-03-21T00:27:44.829Z,3.97
2023-03-21T00:29:57.339Z,4.00
2023-03-21T00:32:26.473Z,4.03
2023-03-21T00:35:11.784Z,4.12
2023-03-21T00:37:44.125Z,4.17
2023-03-21T00:40:24.951Z,4.19
2023-03-21T00:42:55.194Z,4.26
2023-03-21T00:48:37.372Z,4.44
2023-03-21T00:51:15.684Z,4.33
2023-03-21T00:53:44.399Z,4.32
2023-03-21T00:56:12.961Z,4.32
2023-03-21T00:58:41.656Z,4.30
2023-03-21T01:01:10.900Z,4.25
2023-03-21T01:03:42.983Z,4.28
2023-03-21T01:06:14.140Z,4.26
2023-03-21T01:08:52.322Z,4.31
2023-03-21T01:11:28.954Z,4.24
2023-03-21T01:14:10.722Z,4.24
2023-03-21T01:16:47.195Z,4.27
2023-03-21T01:19:26.295Z,4.30
2023-03-21T01:21:58.590Z,4.32
2023-03-21T01:24:27.622Z,4.35
2023-03-21T01:26:56.904Z,4.37
2023-03-21T01:29:25.715Z,4.42
2023-03-21T01:31:54.286Z,4.40
2023-03-21T01:34:22.942Z,4.43
2023-03-21T01:36:52.356Z,4.35
2023-03-21T01:39:22.662Z,4.33
2023-03-21T01:41:52.044Z,4.30
2023-03-21T01:44:29.145Z,4.36
2023-03-21T01:47:13.426Z,4.37
2023-03-21T01:49:49.797Z,4.29
2023-03-21T01:54:40.659Z,4.40
2023-03-21T01:57:16.266Z,4.30
2023-03-21T01:59:50.971Z,4.24
2023-03-21T02:03:18.893Z,4.25
2023-03-21T02:06:09.153Z,4.19
2023-03-21T02:08:40.129Z,4.22
2023-03-21T02:11:11.101Z,4.21
2023-03-21T02:13:41.758Z,4.22
2023-03-21T02:16:47.898Z,4.25
2023-03-21T02:19:52.687Z,4.25
2023-03-21T02:22:55.892Z,4.29
2023-03-21T02:25:43.769Z,4.34
2023-03-21T02:28:35.318Z,4.37
2023-03-21T02:31:28.985Z,4.45
2023-03-21T02:35:07.900Z,4.48
2023-03-21T02:38:11.053Z,4.44
2023-03-21T02:41:10.141Z,4.42
2023-03-21T02:43:58.641Z,4.45
2023-03-21T02:46:48.876Z,4.54
2023-03-21T02:49:31.706Z,4.59
2023-03-21T02:52:12.157Z,4.60
2023-03-21T02:54:48.323Z,4.59
2023-03-21T02:57:19.837Z,4.57
2023-03-21T02:59:55.452Z,4.57
2023-03-21T03:02:31.260Z,4.56
2023-03-21T03:05:00.019Z,4.57
2023-03-21T03:08:05.755Z,4.50
2023-03-21T03:11:14.313Z,4.58
2023-03-21T03:13:58.165Z,4.66
2023-03-21T03:16:37.565Z,4.68
2023-03-21T03:19:10.568Z,4.61
2023-03-21T03:21:56.240Z,4.58
2023-03-21T03:24:39.274Z,4.55
2023-03-21T03:27:15.178Z,4.68
2023-03-21T03:29:46.630Z,4.72
2023-03-21T03:32:29.867Z,4.58
2023-03-21T03:34:59.053Z,4.51
2023-03-21T03:37:37.428Z,4.55
2023-03-21T03:40:19.420Z,4.54
2023-03-21T03:42:57.910Z,4.56
2023-03-21T03:45:47.127Z,4.50
2023-03-21T03:48:51.455Z,4.49
2023-03-21T03:51:36.857Z,4.53
2023-03-21T03:54:54.252Z,4.43
2023-03-21T03:57:25.798Z,4.43
2023-03-21T03:59:53.425Z,4.43
2023-03-21T04:02:27.294Z,4.41
2023-03-21T04:04:57.322Z,4.40
2023-03-21T04:07:24.718Z,4.36
2023-03-21T04:09:54.128Z,4.33
2023-03-21T04:12:21.490Z,4.23
2023-03-21T04:15:32.683Z,4.20
2023-03-21T04:18:11.529Z,4.18
2023-03-21T04:20:39.165Z,4.13
2023-03-21T04:23:07.360Z,4.07
2023-03-21T04:25:38.730Z,4.09
2023-03-21T04:28:08.018Z,4.09
2023-03-21T04:30:51.889Z,4.08
2023-03-21T04:33:26.308Z,4.06
2023-03-21T04:35:56.342Z,4.05
2023-03-21T04:38:30.980Z,4.06
2023-03-21T04:41:04.084Z,4.11
2023-03-21T04:43:33.554Z,4.15
2023-03-21T04:46:02.462Z,4.11
2023-03-21T04:48:30.079Z,4.16
2023-03-21T04:51:00.211Z,4.20
2023-03-21T04:53:29.607Z,4.20
2023-03-21T04:55:58.101Z,4.25
2023-03-21T04:58:27.031Z,4.30
2023-03-21T05:00:54.993Z,4.34
2023-03-21T05:03:24.018Z,4.36
2023-03-21T05:05:54.778Z,4.37
2023-03-21T05:08:22.460Z,4.40
2023-03-21T05:10:51.696Z,4.39
2023-03-21T05:13:20.299Z,4.42
2023-03-21T05:17:07.404Z,4.42
2023-03-21T05:22:24.266Z,4.49
2023-03-21T05:24:55.867Z,4.52
2023-03-21T05:28:08.352Z,4.58
2023-03-21T05:30:36.326Z,4.68
2023-03-21T05:33:04.282Z,4.73
2023-03-21T05:35:31.838Z,4.79
2023-03-21T05:38:03.382Z,4.76
2023-03-21T05:40:35.119Z,4.85
2023-03-21T05:43:04.899Z,4.92
2023-03-21T05:45:40.371Z,4.94
2023-03-21T05:48:23.088Z,5.02
2023-03-21T05:51:12.816Z,5.00
2023-03-21T05:54:26.199Z,5.08
2023-03-21T05:56:54.703Z,5.09
2023-03-21T05:59:31.754Z,5.14
2023-03-21T06:01:59.647Z,5.15
2023-03-21T06:04:28.275Z,5.24
2023-03-21T06:06:59.575Z,5.27
2023-03-21T06:09:31.223Z,5.24
2023-03-21T06:12:27.305Z,5.29
2023-03-21T06:15:26.152Z,5.47
2023-03-21T06:18:20.985Z,5.54
2023-03-21T06:23:34.028Z,5.77
2023-03-21T06:26:02.650Z,5.91
2023-03-21T06:28:32.831Z,5.98
2023-03-21T06:31:00.305Z,6.14
2023-03-21T06:33:57.258Z,6.19
2023-03-21T06:36:54.276Z,6.35
2023-03-21T06:39:26.015Z,6.41
2023-03-21T06:42:22.606Z,6.48
2023-03-21T06:44:50.645Z,6.62
2023-03-21T06:47:19.281Z,6.67
2023-03-21T06:50:53.400Z,6.77
2023-03-21T06:53:28.881Z,6.93
2023-03-21T06:56:35.274Z,7.13
2023-03-21T06:59:42.801Z,7.38
2023-03-21T07:02:16.250Z,7.50
2023-03-21T07:04:54.306Z,7.58
2023-03-21T07:07:32.401Z,7.76
2023-03-21T07:09:59.967Z,7.92
2023-03-21T07:16:14.499Z,8.26
2023-03-21T07:22:42.684Z,8.56
2023-03-21T07:25:55.660Z,8.70
2023-03-21T07:28:23.718Z,8.92
2023-03-21T07:31:46.927Z,9.07
2023-03-21T07:34:32.517Z,9.22
2023-03-21T07:37:16.286Z,9.32
2023-03-21T07:40:26.003Z,9.43
2023-03-21T07:42:55.695Z,9.56
2023-03-21T07:45:35.399Z,9.60
2023-03-21T07:48:46.792Z,9.73
2023-03-21T07:51:14.119Z,9.87
2023-03-21T07:53:47.883Z,10.00
2023-03-21T07:56:41.699Z,10.13
2023-03-21T07:59:09.396Z,10.26
2023-03-21T08:01:37.204Z,10.38
2023-03-21T08:04:30.160Z,10.49
2023-03-21T08:07:43.909Z,10.59
2023-03-21T08:10:15.837Z,10.69
2023-03-21T08:17:05.765Z,10.87
2023-03-21T08:19:33.186Z,10.93
2023-03-21T08:22:26.479Z,11.00
2023-03-21T08:25:32.776Z,11.09
2023-03-21T08:28:36.355Z,11.19
2023-03-21T08:35:01.998Z,11.51
2023-03-21T08:38:03.590Z,11.63
2023-03-21T08:41:14.790Z,11.81
2023-03-21T08:47:30.937Z,12.27
2023-03-21T08:50:49.817Z,12.37
2023-03-21T08:54:09.778Z,12.47
2023-03-21T08:56:38.597Z,12.69
2023-03-21T08:59:20.787Z,12.74
2023-03-21T09:01:48.277Z,12.83
2023-03-21T09:04:27.481Z,12.89
2023-03-21T09:07:26.133Z,12.92
2023-03-21T09:10:25.677Z,13.02
2023-03-21T09:13:21.600Z,13.15
2023-03-21T09:16:43.616Z,13.16
2023-03-21T09:19:12.740Z,13.21
2023-03-21T09:22:06.308Z,13.22
2023-03-21T09:29:00.275Z,13.55
2023-03-21T09:31:29.944Z,13.63
2023-03-21T09:33:58.735Z,13.70
2023-03-21T09:36:27.111Z,13.76
2023-03-21T09:38:56.744Z,13.85
2023-03-21T09:41:57.301Z,13.90
2023-03-21T09:44:58.917Z,14.02
2023-03-21T09:47:34.662Z,14.09
2023-03-21T09:50:27.052Z,14.18
2023-03-21T09:53:00.935Z,14.22
2023-03-21T09:55:38.162Z,14.31
2023-03-21T09:58:30.644Z,14.31
2023-03-21T10:18:28.947Z,14.66
2023-03-21T10:24:48.542Z,14.87
2023-03-21T10:31:07.759Z,14.94
2023-03-21T10:44:17.649Z,14.81
2023-03-21T10:46:57.143Z,14.77
2023-03-21T10:57:17.818Z,14.84
2023-03-21T11:12:49.925Z,14.97
2023-03-21T11:22:12.504Z,15.03
2023-03-21T11:32:13.831Z,15.00
2023-03-21T11:48:58.149Z,15.09
2023-03-21T11:59:02.905Z,15.36
2023-03-21T12:04:53.646Z,15.45
2023-03-21T12:07:58.355Z,15.51
2023-03-21T13:15:28.517Z,16.53
2023-03-21T13:18:26.433Z,16.69
2023-03-21T13:21:04.363Z,16.74
2023-03-21T13:23:39.275Z,16.85
2023-03-21T13:26:11.915Z,16.89
2023-03-21T13:28:41.088Z,16.93
2023-03-21T13:31:27.720Z,16.94
2023-03-21T13:33:59.469Z,16.90
2023-03-21T13:36:37.546Z,16.86
2023-03-21T13:39:06.360Z,16.86
2023-03-21T13:41:42.303Z,16.90
2023-03-21T13:55:04.489Z,16.95
2023-03-21T13:57:33.071Z,16.96
2023-03-21T14:03:24.172Z,16.95
2023-03-21T14:06:05.032Z,16.93
2023-03-21T14:08:58.543Z,16.96
2023-03-21T14:11:54.715Z,17.03
2023-03-21T14:15:20.568Z,17.13
2023-03-21T14:18:15.989Z,17.23
2023-03-21T14:21:09.212Z,17.28
2023-03-21T14:24:14.496Z,17.31
2023-03-21T14:27:19.833Z,17.30
2023-03-21T14:29:52.859Z,17.32
2023-03-21T14:32:28.613Z,17.32
2023-03-21T14:35:01.577Z,17.36
2023-03-21T14:40:37.524Z,17.43
2023-03-21T14:43:09.780Z,17.49
2023-03-21T14:45:41.210Z,17.57
2023-03-21T14:48:37.235Z,17.63
2023-03-21T14:53:50.872Z,17.59
2023-03-21T14:56:24.845Z,17.60
2023-03-21T14:58:54.905Z,17.45
2023-03-21T15:01:34.957Z,17.37
2023-03-21T15:04:06.068Z,17.34
2023-03-21T15:06:57.199Z,17.22
2023-03-21T15:09:30.317Z,17.09
2023-03-21T15:12:01.561Z,16.95
2023-03-21T15:14:41.449Z,16.86
2023-03-21T15:17:24.675Z,16.79
2023-03-21T15:19:52.114Z,16.71
2023-03-21T15:22:34.953Z,16.65
2023-03-21T15:25:12.294Z,16.62
2023-03-21T15:27:42.521Z,16.58
2023-03-21T15:30:27.923Z,16.53
2023-03-21T15:33:07.280Z,16.48
2023-03-21T15:36:09.327Z,16.39
2023-03-21T15:38:45.167Z,16.32
2023-03-21T15:41:19.815Z,16.27
2023-03-21T15:43:54.624Z,16.22
2023-03-21T15:46:53.963Z,16.17
2023-03-21T15:49:40.280Z,16.10
2023-03-21T15:52:16.484Z,16.02
2023-03-21T15:54:58.959Z,15.95
2023-03-21T15:57:32.282Z,15.88
2023-03-21T16:00:19.605Z,15.82
2023-03-21T16:02:53.070Z,15.75
2023-03-21T16:05:34.713Z,15.66
2023-03-21T16:08:31.061Z,15.58
2023-03-21T16:11:27.865Z,15.48
2023-03-21T16:13:56.445Z,15.37
2023-03-21T16:16:29.346Z,15.27
2023-03-21T16:18:59.533Z,15.18
2023-03-21T16:21:33.190Z,15.09
2023-03-21T16:24:01.709Z,14.99
2023-03-21T16:26:36.086Z,14.91
2023-03-21T16:29:06.112Z,14.84
2023-03-21T16:31:36.774Z,14.76
2023-03-21T16:34:04.859Z,14.68
2023-03-21T16:36:42.852Z,14.59
2023-03-21T16:39:17.547Z,14.50
2023-03-21T16:41:46.211Z,14.39
2023-03-21T16:44:14.888Z,14.30
2023-03-21T16:46:42.496Z,14.21
2023-03-21T16:49:26.275Z,14.11
2023-03-21T16:51:56.984Z,14.02
2023-03-21T16:54:25.430Z,13.94
2023-03-21T16:56:55.378Z,13.86
2023-03-21T16:59:23.434Z,13.79
2023-03-21T17:01:51.195Z,13.71
2023-03-21T17:04:20.473Z,13.60
2023-03-21T17:06:53.657Z,13.50
2023-03-21T17:09:26.798Z,13.42
2023-03-21T17:11:55.867Z,13.35
2023-03-21T17:14:24.198Z,13.30
2023-03-21T17:16:52.126Z,13.23
2023-03-21T17:22:17.121Z,13.05
2023-03-21T17:24:45.543Z,13.01
2023-03-21T17:27:43.470Z,12.98
2023-03-21T17:30:30.537Z,12.89
2023-03-21T17:33:01.925Z,12.84
2023-03-21T17:38:54.598Z,12.64
2023-03-21T17:41:23.157Z,12.53
2023-03-21T17:47:51.719Z,12.26
2023-03-21T17:50:23.602Z,12.15
2023-03-21T17:52:52.635Z,12.03
2023-03-21T17:55:20.756Z,11.91
2023-03-21T17:58:01.131Z,11.76
2023-03-21T18:00:37.036Z,11.69
2023-03-21T18:03:04.586Z,11.66
2023-03-21T18:05:34.105Z,11.62
2023-03-21T18:08:12.159Z,11.49
2023-03-21T18:11:44.821Z,11.42
2023-03-21T18:14:29.099Z,11.42
2023-03-21T18:17:00.862Z,11.43
2023-03-21T18:19:31.846Z,11.44
2023-03-21T18:22:05.704Z,11.54
2023-03-21T18:24:37.711Z,11.63
2023-03-21T18:27:06.290Z,11.75
2023-03-21T18:32:31.774Z,11.95
2023-03-21T18:35:00.009Z,12.03
2023-03-21T18:37:31.779Z,12.08
2023-03-21T18:40:22.363Z,12.13
2023-03-21T18:43:45.906Z,12.14
2023-03-21T18:45:40.720Z,12.17
2023-03-21T18:48:13.627Z,12.20
2023-03-21T18:50:42.611Z,12.23
2023-03-21T18:53:11.752Z,12.25
2023-03-21T18:55:46.260Z,12.26
2023-03-21T18:58:17.201Z,12.27
2023-03-21T19:00:46.199Z,12.31
2023-03-21T19:03:30.139Z,12.37
2023-03-21T19:06:09.500Z,12.44
2023-03-21T19:08:42.022Z,12.43
2023-03-21T19:11:11.222Z,12.42
2023-03-21T19:13:40.040Z,12.46
2023-03-21T19:16:11.347Z,12.44
2023-03-21T19:18:57.345Z,12.36
2023-03-21T19:21:26.573Z,12.33
2023-03-21T19:26:47.313Z,12.23
2023-03-21T19:29:16.419Z,12.18
2023-03-21T19:31:45.450Z,12.15
2023-03-21T19:34:14.198Z,12.15
2023-03-21T19:36:46.009Z,12.12
2023-03-21T19:39:22.874Z,12.17
2023-03-21T19:41:55.444Z,12.11
2023-03-21T19:44:30.411Z,12.10
2023-03-21T19:46:59.174Z,12.10
2023-03-21T19:49:48.516Z,12.03
2023-03-21T19:52:16.836Z,11.97
2023-03-21T19:54:45.592Z,11.90
2023-03-21T19:57:16.873Z,11.85
2023-03-21T19:59:45.646Z,11.78
2023-03-21T20:02:34.495Z,11.72
2023-03-21T20:05:06.851Z,11.67
2023-03-21T20:07:35.909Z,11.61
2023-03-21T20:10:08.914Z,11.51
2023-03-21T20:12:37.900Z,11.35
2023-03-21T20:15:17.007Z,11.29
2023-03-21T20:17:51.280Z,11.24
2023-03-21T20:20:20.539Z,11.18
2023-03-21T20:23:06.115Z,11.09
2023-03-21T20:25:47.285Z,11.04
2023-03-21T20:28:25.524Z,11.02
2023-03-21T20:30:58.643Z,10.95
2023-03-21T20:33:28.837Z,10.89
2023-03-21T20:36:37.402Z,10.86
2023-03-21T20:38:55.982Z,10.85
2023-03-21T20:41:24.653Z,10.78
2023-03-21T20:46:47.148Z,10.74
2023-03-21T20:49:16.161Z,10.70
2023-03-21T20:52:44.565Z,10.66
2023-03-21T20:54:34.924Z,10.63
2023-03-21T20:57:05.771Z,10.56
2023-03-21T20:59:35.853Z,10.56
2023-03-21T21:02:05.382Z,10.52
2023-03-21T21:04:49.853Z,10.46
2023-03-21T21:07:23.057Z,10.40
2023-03-21T21:09:51.723Z,10.32
2023-03-21T21:12:20.651Z,10.27
2023-03-21T21:14:49.347Z,10.21
2023-03-21T21:17:37.162Z,10.24
2023-03-21T21:20:18.634Z,10.16
2023-03-21T21:22:59.960Z,10.11
2023-03-21T21:25:33.449Z,10.07
2023-03-21T21:28:02.539Z,10.02
2023-03-21T21:30:32.767Z,9.99
2023-03-21T21:33:01.494Z,9.94
2023-03-21T21:35:30.096Z,9.90
2023-03-21T21:37:58.775Z,9.89
2023-03-21T21:40:27.499Z,9.85
2023-03-21T21:42:57.807Z,9.77
2023-03-21T21:45:26.520Z,9.74
2023-03-21T21:47:55.250Z,9.70
2023-03-21T21:53:46.589Z,9.66
2023-03-21T21:56:15.552Z,9.64
2023-03-21T21:58:47.210Z,9.66
2023-03-21T22:01:16.442Z,9.70
2023-03-21T22:03:46.313Z,9.69
2023-03-21T22:06:14.852Z,9.71
2023-03-21T22:08:47.095Z,9.70
2023-03-21T22:11:16.098Z,9.67
2023-03-21T22:13:45.723Z,9.66
2023-03-21T22:16:14.535Z,9.62
2023-03-21T22:18:43.658Z,9.53
2023-03-21T22:21:12.192Z,9.50
2023-03-21T22:23:43.440Z,9.49
2023-03-21T22:26:11.958Z,9.43
2023-03-21T22:28:42.332Z,9.40
2023-03-21T22:31:17.396Z,9.38
2023-03-21T22:33:46.288Z,9.35
2023-03-21T22:36:14.912Z,9.30
2023-03-21T22:38:44.009Z,9.19
2023-03-21T22:41:12.450Z,9.08
2023-03-21T22:43:40.938Z,8.93
2023-03-21T22:46:09.552Z,8.87
2023-03-21T22:48:38.171Z,8.88
2023-03-21T22:54:58.426Z,9.02
2023-03-21T22:57:25.719Z,8.99
2023-03-21T22:59:52.996Z,8.90
2023-03-21T23:02:20.195Z,8.73
2023-03-21T23:04:48.183Z,8.58
2023-03-21T23:07:16.189Z,8.47
2023-03-21T23:09:43.356Z,8.37
2023-03-21T23:12:10.645Z,8.26
2023-03-21T23:14:37.764Z,8.14
2023-03-21T23:17:04.790Z,8.13
2023-03-21T23:19:32.060Z,8.12
2023-03-21T23:21:59.249Z,8.14
2023-03-21T23:24:26.729Z,8.13
2023-03-21T23:26:53.922Z,8.14
2023-03-21T23:29:21.021Z,8.09
2023-03-21T23:31:48.366Z,8.06
2023-03-21T23:34:15.553Z,7.98
2023-03-21T23:36:42.781Z,7.97
2023-03-21T23:39:10.350Z,7.91
2023-03-21T23:41:37.654Z,7.86
2023-03-21T23:44:05.411Z,7.76
2023-03-21T23:46:32.565Z,7.76
2023-03-21T23:48:59.823Z,7.78
2023-03-21T23:51:27.025Z,7.77
2023-03-21T23:53:56.847Z,7.75
2023-03-21T23:56:26.452Z,7.74
2023-03-21T23:58:53.706Z,7.67
